sensor_id;sensor_type;location;lat;lon;timestamp;pressure;altitude;pressure_sealevel;temperature;humidity
22662;BME280;11497;52.222;21.246;2022-10-20T00:01:26;101444.38;;;3.31;100.00
22662;BME280;11497;52.222;21.246;2022-10-20T00:03:55;101446.25;;;3.41;100.00
22662;BME280;11497;52.222;21.246;2022-10-20T00:06:31;101460.06;;;3.43;100.00
22662;BME280;11497;52.222;21.246;2022-10-20T00:09:02;101456.63;;;3.43;100.00
22662;BME280;11497;52.222;21.246;2022-10-20T00:11:31;101457.38;;;3.36;100.00
22662;BME280;11497;52.222;21.246;2022-10-20T00:14:00;101449.66;;;3.37;100.00
22662;BME280;11497;52.222;21.246;2022-10-20T00:16:30;101460.91;;;3.41;100.00
22662;BME280;11497;52.222;21.246;2022-10-20T00:18:58;101447.94;;;3.39;100.00
22662;BME280;11497;52.222;21.246;2022-10-20T00:21:27;101459.22;;;3.44;100.00
22662;BME280;11497;52.222;21.246;2022-10-20T00:23:57;101461.03;;;3.51;100.00
22662;BME280;11497;52.222;21.246;2022-10-20T00:26:28;101460.97;;;3.45;100.00
22662;BME280;11497;52.222;21.246;2022-10-20T00:28:56;101456.59;;;3.41;100.00
22662;BME280;11497;52.222;21.246;2022-10-20T00:31:25;101460.91;;;3.41;100.00
22662;BME280;11497;52.222;21.246;2022-10-20T00:33:53;101459.09;;;3.35;100.00
22662;BME280;11497;52.222;21.246;2022-10-20T00:36:22;101459.88;;;3.28;100.00
22662;BME280;11497;52.222;21.246;2022-10-20T00:38:50;101462.47;;;3.28;100.00
22662;BME280;11497;52.222;21.246;2022-10-20T00:41:20;101453.69;;;3.18;100.00
22662;BME280;11497;52.222;21.246;2022-10-20T00:43:55;101459.66;;;3.13;100.00
22662;BME280;11497;52.222;21.246;2022-10-20T00:46:31;101454.56;;;3.19;100.00
22662;BME280;11497;52.222;21.246;2022-10-20T00:49:07;101452.78;;;3.15;100.00
22662;BME280;11497;52.222;21.246;2022-10-20T00:51:38;101454.44;;;3.10;100.00
22662;BME280;11497;52.222;21.246;2022-10-20T00:54:09;101449.22;;;3.07;100.00
22662;BME280;11497;52.222;21.246;2022-10-20T00:56:41;101450.88;;;3.02;100.00
22662;BME280;11497;52.222;21.246;2022-10-20T00:59:11;101458.50;;;2.92;100.00
22662;BME280;11497;52.222;21.246;2022-10-20T01:01:41;101456.88;;;2.97;100.00
22662;BME280;11497;52.222;21.246;2022-10-20T01:04:09;101450.09;;;3.07;100.00
22662;BME280;11497;52.222;21.246;2022-10-20T01:06:38;101439.81;;;3.13;100.00
22662;BME280;11497;52.222;21.246;2022-10-20T01:09:06;101447.47;;;3.06;100.00
22662;BME280;11497;52.222;21.246;2022-10-20T01:11:57;101447.41;;;2.99;100.00
22662;BME280;11497;52.222;21.246;2022-10-20T01:20:16;101455.03;;;2.90;100.00
22662;BME280;11497;52.222;21.246;2022-10-20T01:23:03;101454.91;;;2.83;100.00
22662;BME280;11497;52.222;21.246;2022-10-20T01:28:57;101457.41;;;2.78;100.00
22662;BME280;11497;52.222;21.246;2022-10-20T01:31:57;101462.59;;;2.78;100.00
22662;BME280;11497;52.222;21.246;2022-10-20T01:34:46;101460.81;;;2.76;100.00
22662;BME280;11497;52.222;21.246;2022-10-20T01:37:36;101464.13;;;2.67;100.00
22662;BME280;11497;52.222;21.246;2022-10-20T01:42:57;101467.50;;;2.63;100.00
22662;BME280;11497;52.222;21.246;2022-10-20T01:45:30;101452.81;;;2.60;100.00
22662;BME280;11497;52.222;21.246;2022-10-20T01:48:02;101462.31;;;2.60;100.00
22662;BME280;11497;52.222;21.246;2022-10-20T01:50:34;101455.41;;;2.59;100.00
22662;BME280;11497;52.222;21.246;2022-10-20T01:53:03;101458.75;;;2.53;100.00
22662;BME280;11497;52.222;21.246;2022-10-20T01:55:31;101451.00;;;2.52;100.00
22662;BME280;11497;52.222;21.246;2022-10-20T02:00:43;101453.69;;;2.61;100.00
22662;BME280;11497;52.222;21.246;2022-10-20T02:09:43;101459.72;;;2.58;100.00
22662;BME280;11497;52.222;21.246;2022-10-20T02:12:18;101455.34;;;2.54;100.00
22662;BME280;11497;52.222;21.246;2022-10-20T02:14:47;101444.16;;;2.55;100.00
22662;BME280;11497;52.222;21.246;2022-10-20T02:17:16;101442.50;;;2.59;100.00
22662;BME280;11497;52.222;21.246;2022-10-20T02:19:46;101441.53;;;2.54;100.00
22662;BME280;11497;52.222;21.246;2022-10-20T02:22:16;101439.69;;;2.47;100.00
22662;BME280;11497;52.222;21.246;2022-10-20T02:24:46;101436.22;;;2.45;100.00
22662;BME280;11497;52.222;21.246;2022-10-20T02:27:20;101436.97;;;2.38;100.00
22662;BME280;11497;52.222;21.246;2022-10-20T02:30:17;101448.13;;;2.37;100.00
22662;BME280;11497;52.222;21.246;2022-10-20T02:32:47;101441.19;;;2.32;100.00
22662;BME280;11497;52.222;21.246;2022-10-20T02:35:26;101449.72;;;2.28;100.00
22662;BME280;11497;52.222;21.246;2022-10-20T02:37:56;101448.97;;;2.36;100.00
22662;BME280;11497;52.222;21.246;2022-10-20T02:40:24;101451.47;;;2.29;100.00
22662;BME280;11497;52.222;21.246;2022-10-20T02:42:52;101451.34;;;2.23;100.00
22662;BME280;11497;52.222;21.246;2022-10-20T02:45:20;101458.19;;;2.21;100.00
22662;BME280;11497;52.222;21.246;2022-10-20T02:47:48;101456.50;;;2.23;100.00
22662;BME280;11497;52.222;21.246;2022-10-20T02:50:15;101458.19;;;2.21;100.00
22662;BME280;11497;52.222;21.246;2022-10-20T02:52:43;101454.72;;;2.19;100.00
22662;BME280;11497;52.222;21.246;2022-10-20T02:55:11;101458.88;;;2.10;100.00
22662;BME280;11497;52.222;21.246;2022-10-20T02:57:39;101463.09;;;2.06;100.00
22662;BME280;11497;52.222;21.246;2022-10-20T03:00:07;101457.88;;;2.03;100.00
22662;BME280;11497;52.222;21.246;2022-10-20T03:02:35;101462.13;;;1.99;100.00
22662;BME280;11497;52.222;21.246;2022-10-20T03:05:03;101461.13;;;1.93;100.00
22662;BME280;11497;52.222;21.246;2022-10-20T03:07:31;101460.19;;;1.89;100.00
22662;BME280;11497;52.222;21.246;2022-10-20T03:09:59;101466.13;;;1.84;100.00
22662;BME280;11497;52.222;21.246;2022-10-20T03:12:27;101466.00;;;1.78;100.00
22662;BME280;11497;52.222;21.246;2022-10-20T03:14:58;101464.25;;;1.77;100.00
22662;BME280;11497;52.222;21.246;2022-10-20T03:17:26;101466.63;;;1.66;100.00
22662;BME280;11497;52.222;21.246;2022-10-20T03:19:53;101464.09;;;1.67;100.00
22662;BME280;11497;52.222;21.246;2022-10-20T03:22:21;101474.28;;;1.61;100.00
22662;BME280;11497;52.222;21.246;2022-10-20T03:24:49;101474.28;;;1.61;100.00
22662;BME280;11497;52.222;21.246;2022-10-20T03:27:17;101475.97;;;1.59;100.00
22662;BME280;11497;52.222;21.246;2022-10-20T03:29:44;101470.25;;;1.76;100.00
22662;BME280;11497;52.222;21.246;2022-10-20T03:32:12;101470.22;;;1.73;100.00
22662;BME280;11497;52.222;21.246;2022-10-20T03:34:40;101465.06;;;1.73;100.00
22662;BME280;11497;52.222;21.246;2022-10-20T03:37:08;101465.72;;;1.62;100.00
22662;BME280;11497;52.222;21.246;2022-10-20T03:39:36;101464.63;;;1.51;100.00
22662;BME280;11497;52.222;21.246;2022-10-20T03:42:03;101475.56;;;1.41;100.00
22662;BME280;11497;52.222;21.246;2022-10-20T03:44:31;101480.72;;;1.41;100.00
22662;BME280;11497;52.222;21.246;2022-10-20T03:46:59;101480.66;;;1.38;100.00
22662;BME280;11497;52.222;21.246;2022-10-20T03:49:27;101491.78;;;1.36;100.00
22662;BME280;11497;52.222;21.246;2022-10-20T03:51:55;101490.81;;;1.29;100.00
22662;BME280;11497;52.222;21.246;2022-10-20T03:54:23;101486.53;;;1.29;100.00
22662;BME280;11497;52.222;21.246;2022-10-20T03:56:50;101488.03;;;1.20;100.00
22662;BME280;11497;52.222;21.246;2022-10-20T03:59:18;101485.41;;;1.18;100.00
22662;BME280;11497;52.222;21.246;2022-10-20T04:01:46;101488.72;;;1.13;100.00
22662;BME280;11497;52.222;21.246;2022-10-20T04:04:14;101488.06;;;1.21;100.00
22662;BME280;11497;52.222;21.246;2022-10-20T04:06:42;101494.00;;;1.19;100.00
22662;BME280;11497;52.222;21.246;2022-10-20T04:09:09;101490.38;;;1.11;100.00
22662;BME280;11497;52.222;21.246;2022-10-20T04:11:37;101500.84;;;1.17;100.00
22662;BME280;11497;52.222;21.246;2022-10-20T04:14:05;101497.22;;;1.09;100.00
22662;BME280;11497;52.222;21.246;2022-10-20T04:16:32;101502.31;;;1.06;100.00
22662;BME280;11497;52.222;21.246;2022-10-20T04:19:00;101499.72;;;1.06;100.00
22662;BME280;11497;52.222;21.246;2022-10-20T04:21:29;101497.28;;;1.12;100.00
22662;BME280;11497;52.222;21.246;2022-10-20T04:23:57;101497.22;;;1.09;100.00
22662;BME280;11497;52.222;21.246;2022-10-20T04:26:25;101500.56;;;1.05;100.00
22662;BME280;11497;52.222;21.246;2022-10-20T04:28:54;101497.00;;;0.99;100.00
22662;BME280;11497;52.222;21.246;2022-10-20T04:31:22;101499.72;;;1.06;100.00
22662;BME280;11497;52.222;21.246;2022-10-20T04:33:49;101508.66;;;1.20;100.00
22662;BME280;11497;52.222;21.246;2022-10-20T04:36:17;101497.22;;;1.09;100.00
22662;BME280;11497;52.222;21.246;2022-10-20T04:38:45;101501.31;;;1.00;100.00
22662;BME280;11497;52.222;21.246;2022-10-20T04:41:13;101503.00;;;0.98;100.00
22662;BME280;11497;52.222;21.246;2022-10-20T04:43:40;101502.72;;;0.86;100.00
22662;BME280;11497;52.222;21.246;2022-10-20T04:46:09;101506.41;;;0.97;100.00
22662;BME280;11497;52.222;21.246;2022-10-20T04:48:40;101504.47;;;0.89;100.00
22662;BME280;11497;52.222;21.246;2022-10-20T04:51:11;101500.06;;;0.83;100.00
22662;BME280;11497;52.222;21.246;2022-10-20T04:53:40;101503.75;;;0.94;100.00
22662;BME280;11497;52.222;21.246;2022-10-20T04:56:12;101510.72;;;0.98;100.00
22662;BME280;11497;52.222;21.246;2022-10-20T04:58:40;101508.72;;;0.85;100.00
22662;BME280;11497;52.222;21.246;2022-10-20T05:01:09;101509.50;;;0.83;100.00
22662;BME280;11497;52.222;21.246;2022-10-20T05:03:37;101512.88;;;0.80;100.00
22662;BME280;11497;52.222;21.246;2022-10-20T05:06:28;101508.59;;;0.81;100.00
22662;BME280;11497;52.222;21.246;2022-10-20T05:09:04;101520.31;;;0.68;100.00
22662;BME280;11497;52.222;21.246;2022-10-20T05:11:35;101527.03;;;0.63;100.00
22662;BME280;11497;52.222;21.246;2022-10-20T05:14:03;101526.88;;;0.57;100.00
22662;BME280;11497;52.222;21.246;2022-10-20T05:16:30;101520.97;;;0.61;100.00
22662;BME280;11497;52.222;21.246;2022-10-20T05:18:58;101519.34;;;0.64;100.00
22662;BME280;11497;52.222;21.246;2022-10-20T05:21:28;101521.19;;;0.69;100.00
22662;BME280;11497;52.222;21.246;2022-10-20T05:23:58;101527.28;;;0.72;100.00
22662;BME280;11497;52.222;21.246;2022-10-20T05:26:28;101532.44;;;0.72;100.00
22662;BME280;11497;52.222;21.246;2022-10-20T05:28:59;101528.19;;;0.74;100.00
22662;BME280;11497;52.222;21.246;2022-10-20T05:31:27;101518.78;;;0.76;100.00
22662;BME280;11497;52.222;21.246;2022-10-20T05:33:55;101519.03;;;0.85;100.00
22662;BME280;11497;52.222;21.246;2022-10-20T05:36:26;101527.75;;;0.92;100.00
22662;BME280;11497;52.222;21.246;2022-10-20T05:38:54;101535.09;;;1.11;100.00
22662;BME280;11497;52.222;21.246;2022-10-20T05:41:25;101536.88;;;1.14;100.00
22662;BME280;11497;52.222;21.246;2022-10-20T05:43:56;101542.31;;;1.26;100.00
22662;BME280;11497;52.222;21.246;2022-10-20T05:46:31;101544.00;;;1.24;100.00
22662;BME280;11497;52.222;21.246;2022-10-20T05:49:01;101552.63;;;1.65;100.00
22662;BME280;11497;52.222;21.246;2022-10-20T05:51:33;101545.63;;;2.00;100.00
22662;BME280;11497;52.222;21.246;2022-10-20T05:54:02;101548.47;;;2.14;100.00
22662;BME280;11497;52.222;21.246;2022-10-20T05:56:31;101555.63;;;2.28;100.00
22662;BME280;11497;52.222;21.246;2022-10-20T05:59:00;101559.38;;;2.44;100.00
22662;BME280;11497;52.222;21.246;2022-10-20T06:01:31;101568.78;;;2.41;100.00
22662;BME280;11497;52.222;21.246;2022-10-20T06:04:07;101562.88;;;2.46;100.00
22662;BME280;11497;52.222;21.246;2022-10-20T06:06:35;101564.00;;;2.62;100.00
22662;BME280;11497;52.222;21.246;2022-10-20T06:09:06;101567.88;;;2.87;100.00
22662;BME280;11497;52.222;21.246;2022-10-20T06:11:35;101563.81;;;3.01;100.00
22662;BME280;11497;52.222;21.246;2022-10-20T06:14:07;101571.66;;;3.09;100.00
22662;BME280;11497;52.222;21.246;2022-10-20T06:16:35;101570.84;;;3.11;100.00
22662;BME280;11497;52.222;21.246;2022-10-20T06:19:03;101579.34;;;3.04;100.00
22662;BME280;11497;52.222;21.246;2022-10-20T06:21:33;101587.13;;;3.03;100.00
22662;BME280;11497;52.222;21.246;2022-10-20T06:24:02;101584.25;;;3.40;100.00
22662;BME280;11497;52.222;21.246;2022-10-20T06:26:32;101586.59;;;3.84;100.00
22662;BME280;11497;52.222;21.246;2022-10-20T06:29:01;101588.38;;;3.88;100.00
22662;BME280;11497;52.222;21.246;2022-10-20T06:31:36;101584.91;;;3.86;100.00
22662;BME280;11497;52.222;21.246;2022-10-20T06:34:09;101588.34;;;3.85;100.00
22662;BME280;11497;52.222;21.246;2022-10-20T06:36:40;101586.69;;;3.93;100.00
22662;BME280;11497;52.222;21.246;2022-10-20T06:39:11;101588.56;;;4.03;100.00
22662;BME280;11497;52.222;21.246;2022-10-20T06:41:52;101593.13;;;4.24;100.00
22662;BME280;11497;52.222;21.246;2022-10-20T06:44:23;101589.00;;;4.43;100.00
22662;BME280;11497;52.222;21.246;2022-10-20T06:46:51;101598.84;;;4.73;100.00
22662;BME280;11497;52.222;21.246;2022-10-20T06:49:19;101594.66;;;4.88;100.00
22662;BME280;11497;52.222;21.246;2022-10-20T06:51:48;101591.38;;;5.08;100.00
22662;BME280;11497;52.222;21.246;2022-10-20T06:54:16;101596.66;;;5.20;100.00
22662;BME280;11497;52.222;21.246;2022-10-20T06:56:44;101599.28;;;5.26;100.00
22662;BME280;11497;52.222;21.246;2022-10-20T06:59:12;101601.09;;;5.38;100.00
22662;BME280;11497;52.222;21.246;2022-10-20T07:01:40;101605.56;;;5.55;100.00
22662;BME280;11497;52.222;21.246;2022-10-20T07:04:14;101597.00;;;5.75;100.00
22662;BME280;11497;52.222;21.246;2022-10-20T07:06:43;101605.88;;;6.01;100.00
22662;BME280;11497;52.222;21.246;2022-10-20T07:09:15;101611.97;;;6.15;100.00
22662;BME280;11497;52.222;21.246;2022-10-20T07:11:44;101605.91;;;6.16;100.00
22662;BME280;11497;52.222;21.246;2022-10-20T07:14:13;101612.00;;;6.20;100.00
22662;BME280;11497;52.222;21.246;2022-10-20T07:16:41;101612.84;;;6.17;100.00
22662;BME280;11497;52.222;21.246;2022-10-20T07:19:08;101620.59;;;6.08;99.22
22662;BME280;11497;52.222;21.246;2022-10-20T07:21:37;101611.94;;;6.05;98.61
22662;BME280;11497;52.222;21.246;2022-10-20T07:24:10;101617.16;;;6.14;97.42
22662;BME280;11497;52.222;21.246;2022-10-20T07:26:39;101617.19;;;6.23;95.77
22662;BME280;11497;52.222;21.246;2022-10-20T07:29:08;101612.06;;;6.37;94.57
22662;BME280;11497;52.222;21.246;2022-10-20T07:31:39;101609.53;;;6.67;92.94
22662;BME280;11497;52.222;21.246;2022-10-20T07:34:08;101617.38;;;7.11;91.79
22662;BME280;11497;52.222;21.246;2022-10-20T07:36:53;101615.41;;;8.38;88.88
22662;BME280;11497;52.222;21.246;2022-10-20T07:39:21;101619.75;;;9.57;84.47
22662;BME280;11497;52.222;21.246;2022-10-20T07:41:50;101617.13;;;10.96;81.51
22662;BME280;11497;52.222;21.246;2022-10-20T07:44:18;101619.97;;;13.08;75.51
22662;BME280;11497;52.222;21.246;2022-10-20T07:46:46;101619.16;;;14.94;67.54
22662;BME280;11497;52.222;21.246;2022-10-20T07:49:13;101629.78;;;16.67;58.09
22662;BME280;11497;52.222;21.246;2022-10-20T07:52:01;101627.91;;;18.35;53.97
22662;BME280;11497;52.222;21.246;2022-10-20T07:54:29;101629.28;;;19.17;49.25
22662;BME280;11497;52.222;21.246;2022-10-20T07:56:57;101632.94;;;20.51;45.92
22662;BME280;11497;52.222;21.246;2022-10-20T07:59:25;101629.31;;;20.99;42.77
22662;BME280;11497;52.222;21.246;2022-10-20T08:01:53;101639.78;;;21.02;41.47
22662;BME280;11497;52.222;21.246;2022-10-20T08:04:25;101644.03;;;20.26;41.26
22662;BME280;11497;52.222;21.246;2022-10-20T08:06:53;101633.09;;;19.82;41.02
22662;BME280;11497;52.222;21.246;2022-10-20T08:09:20;101627.03;;;19.96;41.41
22662;BME280;11497;52.222;21.246;2022-10-20T08:11:48;101638.31;;;20.34;40.62
22662;BME280;11497;52.222;21.246;2022-10-20T08:14:22;101631.78;;;20.06;40.18
22662;BME280;11497;52.222;21.246;2022-10-20T08:16:50;101644.66;;;19.46;40.73
22662;BME280;11497;52.222;21.246;2022-10-20T08:19:18;101639.53;;;18.88;41.12
22662;BME280;11497;52.222;21.246;2022-10-20T08:21:59;101643.22;;;18.09;41.99
22662;BME280;11497;52.222;21.246;2022-10-20T08:24:27;101643.13;;;17.72;42.83
22662;BME280;11497;52.222;21.246;2022-10-20T08:26:55;101642.44;;;17.24;43.89
22662;BME280;11497;52.222;21.246;2022-10-20T08:29:23;101640.16;;;17.57;43.74
22662;BME280;11497;52.222;21.246;2022-10-20T08:31:51;101638.75;;;17.71;43.19
22662;BME280;11497;52.222;21.246;2022-10-20T08:34:18;101639.56;;;17.73;42.09
22662;BME280;11497;52.222;21.246;2022-10-20T08:36:46;101640.59;;;17.89;42.63
22662;BME280;11497;52.222;21.246;2022-10-20T08:39:14;101635.00;;;17.54;43.15
22662;BME280;11497;52.222;21.246;2022-10-20T08:41:45;101648.53;;;18.09;43.37
22662;BME280;11497;52.222;21.246;2022-10-20T08:44:35;101644.94;;;18.10;42.56
22662;BME280;11497;52.222;21.246;2022-10-20T08:49:48;101649.34;;;19.76;40.50
22662;BME280;11497;52.222;21.246;2022-10-20T08:52:17;101648.38;;;20.91;39.28
22662;BME280;11497;52.222;21.246;2022-10-20T08:54:49;101652.16;;;21.79;38.00
22662;BME280;11497;52.222;21.246;2022-10-20T08:57:29;101650.19;;;21.07;37.34
22662;BME280;11497;52.222;21.246;2022-10-20T09:00:14;101654.22;;;20.51;37.64
22662;BME280;11497;52.222;21.246;2022-10-20T09:02:42;101647.41;;;20.12;36.99
22662;BME280;11497;52.222;21.246;2022-10-20T09:05:11;101650.00;;;20.14;36.99
22662;BME280;11497;52.222;21.246;2022-10-20T09:07:46;101649.88;;;19.48;36.49
22662;BME280;11497;52.222;21.246;2022-10-20T09:10:32;101652.03;;;18.10;38.16
22662;BME280;11497;52.222;21.246;2022-10-20T09:13:05;101644.72;;;17.76;39.06
22662;BME280;11497;52.222;21.246;2022-10-20T09:15:33;101645.06;;;19.20;39.44
22662;BME280;11497;52.222;21.246;2022-10-20T09:18:05;101639.78;;;21.18;36.92
22662;BME280;11497;52.222;21.246;2022-10-20T09:20:56;101645.75;;;22.40;33.27
22662;BME280;11497;52.222;21.246;2022-10-20T09:23:46;101639.06;;;23.29;32.02
22662;BME280;11497;52.222;21.246;2022-10-20T09:26:22;101644.25;;;23.58;30.88
22662;BME280;11497;52.222;21.246;2022-10-20T09:29:13;101647.41;;;23.77;29.74
22662;BME280;11497;52.222;21.246;2022-10-20T09:31:50;101642.38;;;24.10;28.88
22662;BME280;11497;52.222;21.246;2022-10-20T09:34:32;101641.91;;;24.54;29.32
22662;BME280;11497;52.222;21.246;2022-10-20T09:39:53;101636.91;;;24.37;28.44
22662;BME280;11497;52.222;21.246;2022-10-20T09:42:28;101637.25;;;24.07;28.25
22662;BME280;11497;52.222;21.246;2022-10-20T09:44:57;101631.25;;;23.91;28.03
22662;BME280;11497;52.222;21.246;2022-10-20T09:47:27;101634.00;;;24.40;27.57
22662;BME280;11497;52.222;21.246;2022-10-20T09:50:04;101629.53;;;24.41;26.35
22662;BME280;11497;52.222;21.246;2022-10-20T09:52:37;101630.19;;;24.06;27.44
22662;BME280;11497;52.222;21.246;2022-10-20T09:55:29;101628.78;;;23.63;27.62
22662;BME280;11497;52.222;21.246;2022-10-20T09:57:59;101626.84;;;23.90;27.31
22662;BME280;11497;52.222;21.246;2022-10-20T10:00:34;101621.31;;;23.28;27.84
22662;BME280;11497;52.222;21.246;2022-10-20T10:05:57;101617.53;;;21.93;28.89
22662;BME280;11497;52.222;21.246;2022-10-20T10:08:28;101615.56;;;20.28;30.46
22662;BME280;11497;52.222;21.246;2022-10-20T10:11:18;101615.03;;;18.65;32.79
22662;BME280;11497;52.222;21.246;2022-10-20T10:13:50;101613.59;;;17.39;33.97
22662;BME280;11497;52.222;21.246;2022-10-20T10:16:21;101621.72;;;16.23;35.70
22662;BME280;11497;52.222;21.246;2022-10-20T10:19:01;101616.97;;;15.85;36.93
22662;BME280;11497;52.222;21.246;2022-10-20T10:21:44;101611.50;;;15.40;37.63
22662;BME280;11497;52.222;21.246;2022-10-20T10:24:29;101613.00;;;14.94;39.06
22662;BME280;11497;52.222;21.246;2022-10-20T10:26:59;101608.25;;;14.49;40.53
22662;BME280;11497;52.222;21.246;2022-10-20T10:29:34;101612.41;;;13.96;41.66
22662;BME280;11497;52.222;21.246;2022-10-20T10:35:00;101606.66;;;13.14;43.42
22662;BME280;11497;52.222;21.246;2022-10-20T10:37:31;101606.22;;;12.96;44.15
22662;BME280;11497;52.222;21.246;2022-10-20T10:40:35;101599.16;;;12.61;44.93
22662;BME280;11497;52.222;21.246;2022-10-20T10:46:07;101592.19;;;12.59;45.64
22662;BME280;11497;52.222;21.246;2022-10-20T10:54:26;101593.16;;;12.93;45.82
22662;BME280;11497;52.222;21.246;2022-10-20T10:56:58;101593.59;;;13.11;45.24
22662;BME280;11497;52.222;21.246;2022-10-20T10:59:35;101587.50;;;13.44;45.08
22662;BME280;11497;52.222;21.246;2022-10-20T11:02:54;101585.44;;;13.88;44.10
22662;BME280;11497;52.222;21.246;2022-10-20T11:08:50;101574.69;;;14.26;43.01
22662;BME280;11497;52.222;21.246;2022-10-20T11:14:06;101576.81;;;13.84;43.76
22662;BME280;11497;52.222;21.246;2022-10-20T11:27:09;101558.03;;;13.33;46.48
22662;BME280;11497;52.222;21.246;2022-10-20T11:29:52;101553.00;;;13.24;46.02
22662;BME280;11497;52.222;21.246;2022-10-20T11:32:35;101544.22;;;13.25;46.17
22662;BME280;11497;52.222;21.246;2022-10-20T11:41:24;101533.94;;;13.16;45.84
22662;BME280;11497;52.222;21.246;2022-10-20T11:49:09;101534.41;;;13.62;45.36
22662;BME280;11497;52.222;21.246;2022-10-20T11:57:35;101519.31;;;13.38;45.58
22662;BME280;11497;52.222;21.246;2022-10-20T12:11:25;101516.97;;;13.27;45.39
22662;BME280;11497;52.222;21.246;2022-10-20T12:19:26;101509.81;;;13.94;43.97
22662;BME280;11497;52.222;21.246;2022-10-20T12:27:31;101501.69;;;14.02;42.98
22662;BME280;11497;52.222;21.246;2022-10-20T12:33:14;101500.31;;;13.89;42.84
22662;BME280;11497;52.222;21.246;2022-10-20T12:38:51;101506.06;;;13.74;43.11
22662;BME280;11497;52.222;21.246;2022-10-20T12:41:30;101500.47;;;13.84;43.00
22662;BME280;11497;52.222;21.246;2022-10-20T12:44:05;101498.38;;;13.95;42.70
22662;BME280;11497;52.222;21.246;2022-10-20T12:46:36;101492.72;;;13.80;43.02
22662;BME280;11497;52.222;21.246;2022-10-20T12:49:06;101490.59;;;13.61;43.47
22662;BME280;11497;52.222;21.246;2022-10-20T12:51:54;101486.06;;;13.67;44.30
22662;BME280;11497;52.222;21.246;2022-10-20T12:54:35;101487.59;;;13.75;43.41
22662;BME280;11497;52.222;21.246;2022-10-20T12:57:35;101486.69;;;13.76;43.60
22662;BME280;11497;52.222;21.246;2022-10-20T13:02:55;101494.00;;;13.94;43.71
22662;BME280;11497;52.222;21.246;2022-10-20T13:10:46;101484.84;;;13.15;45.47
22662;BME280;11497;52.222;21.246;2022-10-20T13:15:48;101487.06;;;12.97;46.48
22662;BME280;11497;52.222;21.246;2022-10-20T13:18:33;101485.44;;;12.93;46.36
22662;BME280;11497;52.222;21.246;2022-10-20T13:21:21;101479.38;;;12.90;47.13
22662;BME280;11497;52.222;21.246;2022-10-20T13:29:21;101478.38;;;12.95;47.18
22662;BME280;11497;52.222;21.246;2022-10-20T13:34:46;101476.72;;;13.25;46.41
22662;BME280;11497;52.222;21.246;2022-10-20T13:37:26;101480.09;;;13.30;46.11
22662;BME280;11497;52.222;21.246;2022-10-20T13:49:26;101469.28;;;13.41;45.22
22662;BME280;11497;52.222;21.246;2022-10-20T13:51:29;101466.06;;;13.30;45.15
22662;BME280;11497;52.222;21.246;2022-10-20T13:54:01;101461.88;;;13.23;45.72
22662;BME280;11497;52.222;21.246;2022-10-20T13:56:36;101469.28;;;13.07;45.34
22662;BME280;11497;52.222;21.246;2022-10-20T13:59:25;101446.34;;;12.80;46.54
22662;BME280;11497;52.222;21.246;2022-10-20T14:02:00;101463.13;;;12.74;47.45
22662;BME280;11497;52.222;21.246;2022-10-20T14:04:33;101459.41;;;12.49;48.31
22662;BME280;11497;52.222;21.246;2022-10-20T14:07:06;101460.16;;;12.54;49.18
22662;BME280;11497;52.222;21.246;2022-10-20T14:09:40;101458.50;;;12.50;48.93
22662;BME280;11497;52.222;21.246;2022-10-20T14:12:21;101461.00;;;12.17;49.73
22662;BME280;11497;52.222;21.246;2022-10-20T14:14:50;101450.75;;;12.08;50.15
22662;BME280;11497;52.222;21.246;2022-10-20T14:17:28;101463.56;;;11.82;51.32
22662;BME280;11497;52.222;21.246;2022-10-20T14:20:35;101457.50;;;11.78;51.62
22662;BME280;11497;52.222;21.246;2022-10-20T14:23:10;101450.84;;;11.62;52.51
22662;BME280;11497;52.222;21.246;2022-10-20T14:25:38;101452.56;;;11.63;53.29
22662;BME280;11497;52.222;21.246;2022-10-20T14:28:06;101458.94;;;11.50;53.63
22662;BME280;11497;52.222;21.246;2022-10-20T14:30:34;101451.16;;;11.47;54.33
22662;BME280;11497;52.222;21.246;2022-10-20T14:33:14;101442.03;;;11.23;54.98
22662;BME280;11497;52.222;21.246;2022-10-20T14:35:48;101438.56;;;11.21;55.35
22662;BME280;11497;52.222;21.246;2022-10-20T14:38:23;101442.16;;;11.15;55.89
22662;BME280;11497;52.222;21.246;2022-10-20T14:40:54;101442.25;;;11.11;56.34
22662;BME280;11497;52.222;21.246;2022-10-20T14:43:42;101440.78;;;10.94;56.90
22662;BME280;11497;52.222;21.246;2022-10-20T14:46:21;101438.16;;;10.96;57.30
22662;BME280;11497;52.222;21.246;2022-10-20T14:48:50;101443.84;;;10.72;57.73
22662;BME280;11497;52.222;21.246;2022-10-20T14:54:15;101439.50;;;10.69;59.45
22662;BME280;11497;52.222;21.246;2022-10-20T14:56:52;101438.88;;;10.55;59.40
22662;BME280;11497;52.222;21.246;2022-10-20T14:59:31;101429.38;;;10.49;59.64
22662;BME280;11497;52.222;21.246;2022-10-20T15:02:01;101428.72;;;10.37;59.85
22662;BME280;11497;52.222;21.246;2022-10-20T15:04:40;101424.50;;;10.26;60.41
22662;BME280;11497;52.222;21.246;2022-10-20T15:07:21;101431.56;;;10.21;61.22
22662;BME280;11497;52.222;21.246;2022-10-20T15:10:06;101417.16;;;9.93;61.69
22662;BME280;11497;52.222;21.246;2022-10-20T15:12:41;101421.56;;;9.89;62.54
22662;BME280;11497;52.222;21.246;2022-10-20T15:17:48;101413.16;;;9.64;63.67
22662;BME280;11497;52.222;21.246;2022-10-20T15:20:32;101415.16;;;9.47;64.27
22662;BME280;11497;52.222;21.246;2022-10-20T15:23:22;101413.47;;;9.43;64.46
22662;BME280;11497;52.222;21.246;2022-10-20T15:25:54;101418.75;;;9.37;64.79